sensor_id;sensor_type;location;lat;lon;timestamp;P1;durP1;ratioP1;P2;durP2;ratioP2
49310;SDS011;35177;45.900;5.946;2024-01-30T00:01:42;24.52;;;13.75;;
49310;SDS011;35177;45.900;5.946;2024-01-30T00:04:07;28.40;;;13.95;;
49310;SDS011;35177;45.900;5.946;2024-01-30T00:06:33;24.48;;;13.60;;
49310;SDS011;35177;45.900;5.946;2024-01-30T00:08:58;27.98;;;13.98;;
49310;SDS011;35177;45.900;5.946;2024-01-30T00:11:23;29.55;;;13.95;;
49310;SDS011;35177;45.900;5.946;2024-01-30T00:13:50;24.77;;;13.00;;
49310;SDS011;35177;45.900;5.946;2024-01-30T00:16:22;32.15;;;15.00;;
49310;SDS011;35177;45.900;5.946;2024-01-30T00:18:49;29.23;;;14.40;;
49310;SDS011;35177;45.900;5.946;2024-01-30T00:21:15;34.05;;;15.63;;
49310;SDS011;35177;45.900;5.946;2024-01-30T00:23:40;32.15;;;14.38;;
49310;SDS011;35177;45.900;5.946;2024-01-30T00:26:05;30.63;;;14.48;;
49310;SDS011;35177;45.900;5.946;2024-01-30T00:28:31;26.27;;;13.70;;
49310;SDS011;35177;45.900;5.946;2024-01-30T00:30:56;21.67;;;12.05;;
49310;SDS011;35177;45.900;5.946;2024-01-30T00:33:21;18.33;;;11.65;;
49310;SDS011;35177;45.900;5.946;2024-01-30T00:35:47;21.88;;;12.43;;
49310;SDS011;35177;45.900;5.946;2024-01-30T00:38:12;23.55;;;12.77;;
49310;SDS011;35177;45.900;5.946;2024-01-30T00:40:37;25.38;;;13.88;;
49310;SDS011;35177;45.900;5.946;2024-01-30T00:43:02;33.47;;;14.15;;
49310;SDS011;35177;45.900;5.946;2024-01-30T00:45:28;30.02;;;18.20;;
49310;SDS011;35177;45.900;5.946;2024-01-30T00:47:53;30.52;;;16.17;;
49310;SDS011;35177;45.900;5.946;2024-01-30T00:50:18;32.58;;;16.30;;
49310;SDS011;35177;45.900;5.946;2024-01-30T00:52:44;30.75;;;15.95;;
49310;SDS011;35177;45.900;5.946;2024-01-30T00:55:10;28.27;;;14.25;;
49310;SDS011;35177;45.900;5.946;2024-01-30T00:57:36;23.58;;;13.05;;
49310;SDS011;35177;45.900;5.946;2024-01-30T01:00:01;24.80;;;12.98;;
49310;SDS011;35177;45.900;5.946;2024-01-30T01:02:27;21.65;;;11.77;;
49310;SDS011;35177;45.900;5.946;2024-01-30T01:04:53;21.20;;;11.60;;
49310;SDS011;35177;45.900;5.946;2024-01-30T01:07:18;21.45;;;11.80;;
49310;SDS011;35177;45.900;5.946;2024-01-30T01:09:43;17.70;;;10.98;;
49310;SDS011;35177;45.900;5.946;2024-01-30T01:12:09;24.17;;;11.93;;
49310;SDS011;35177;45.900;5.946;2024-01-30T01:14:34;23.17;;;12.85;;
49310;SDS011;35177;45.900;5.946;2024-01-30T01:16:59;23.50;;;12.93;;
49310;SDS011;35177;45.900;5.946;2024-01-30T01:19:24;20.95;;;11.73;;
49310;SDS011;35177;45.900;5.946;2024-01-30T01:21:50;22.77;;;12.75;;
49310;SDS011;35177;45.900;5.946;2024-01-30T01:24:15;20.73;;;12.75;;
49310;SDS011;35177;45.900;5.946;2024-01-30T01:26:40;30.40;;;13.38;;
49310;SDS011;35177;45.900;5.946;2024-01-30T01:29:08;29.95;;;13.68;;
49310;SDS011;35177;45.900;5.946;2024-01-30T01:31:37;24.42;;;14.18;;
49310;SDS011;35177;45.900;5.946;2024-01-30T01:34:08;21.13;;;13.00;;
49310;SDS011;35177;45.900;5.946;2024-01-30T01:36:34;23.55;;;13.13;;
49310;SDS011;35177;45.900;5.946;2024-01-30T01:38:59;22.63;;;12.82;;
49310;SDS011;35177;45.900;5.946;2024-01-30T01:41:24;24.58;;;13.20;;
49310;SDS011;35177;45.900;5.946;2024-01-30T01:43:49;27.35;;;13.35;;
49310;SDS011;35177;45.900;5.946;2024-01-30T01:46:15;22.67;;;14.05;;
49310;SDS011;35177;45.900;5.946;2024-01-30T01:48:40;26.50;;;13.40;;
49310;SDS011;35177;45.900;5.946;2024-01-30T01:51:07;18.35;;;12.30;;
49310;SDS011;35177;45.900;5.946;2024-01-30T01:53:33;25.13;;;14.88;;
49310;SDS011;35177;45.900;5.946;2024-01-30T01:55:59;27.88;;;15.82;;
49310;SDS011;35177;45.900;5.946;2024-01-30T01:58:24;30.80;;;15.32;;
49310;SDS011;35177;45.900;5.946;2024-01-30T02:00:52;23.85;;;13.52;;
49310;SDS011;35177;45.900;5.946;2024-01-30T02:03:17;26.08;;;14.45;;
49310;SDS011;35177;45.900;5.946;2024-01-30T02:05:43;22.35;;;13.27;;
49310;SDS011;35177;45.900;5.946;2024-01-30T02:08:09;25.70;;;14.70;;
49310;SDS011;35177;45.900;5.946;2024-01-30T02:10:34;20.20;;;12.32;;
49310;SDS011;35177;45.900;5.946;2024-01-30T02:12:59;25.75;;;13.35;;
49310;SDS011;35177;45.900;5.946;2024-01-30T02:15:25;26.10;;;14.70;;
49310;SDS011;35177;45.900;5.946;2024-01-30T02:17:50;19.13;;;12.02;;
49310;SDS011;35177;45.900;5.946;2024-01-30T02:20:15;20.13;;;12.13;;
49310;SDS011;35177;45.900;5.946;2024-01-30T02:22:40;20.48;;;12.65;;
49310;SDS011;35177;45.900;5.946;2024-01-30T02:25:06;148.23;;;17.05;;
49310;SDS011;35177;45.900;5.946;2024-01-30T02:27:31;21.80;;;13.05;;
49310;SDS011;35177;45.900;5.946;2024-01-30T02:29:57;24.90;;;13.38;;
49310;SDS011;35177;45.900;5.946;2024-01-30T02:32:22;19.95;;;12.80;;
49310;SDS011;35177;45.900;5.946;2024-01-30T02:34:47;19.48;;;12.05;;
49310;SDS011;35177;45.900;5.946;2024-01-30T02:37:12;19.77;;;11.32;;
49310;SDS011;35177;45.900;5.946;2024-01-30T02:39:38;21.17;;;12.68;;
49310;SDS011;35177;45.900;5.946;2024-01-30T02:42:03;24.13;;;13.57;;
49310;SDS011;35177;45.900;5.946;2024-01-30T02:44:28;21.20;;;12.65;;
49310;SDS011;35177;45.900;5.946;2024-01-30T02:46:54;28.88;;;15.45;;
49310;SDS011;35177;45.900;5.946;2024-01-30T02:49:20;19.48;;;12.15;;
49310;SDS011;35177;45.900;5.946;2024-01-30T02:51:45;19.75;;;12.15;;
49310;SDS011;35177;45.900;5.946;2024-01-30T02:54:11;17.58;;;12.07;;
49310;SDS011;35177;45.900;5.946;2024-01-30T02:56:36;19.25;;;11.32;;
49310;SDS011;35177;45.900;5.946;2024-01-30T02:59:01;18.95;;;10.75;;
49310;SDS011;35177;45.900;5.946;2024-01-30T03:01:26;19.30;;;11.18;;
49310;SDS011;35177;45.900;5.946;2024-01-30T03:03:52;21.17;;;11.63;;
49310;SDS011;35177;45.900;5.946;2024-01-30T03:06:17;18.48;;;11.52;;
49310;SDS011;35177;45.900;5.946;2024-01-30T03:08:45;23.73;;;12.88;;
49310;SDS011;35177;45.900;5.946;2024-01-30T03:11:10;20.92;;;11.65;;
49310;SDS011;35177;45.900;5.946;2024-01-30T03:13:35;16.63;;;11.13;;
49310;SDS011;35177;45.900;5.946;2024-01-30T03:16:00;22.52;;;12.23;;
49310;SDS011;35177;45.900;5.946;2024-01-30T03:18:26;18.50;;;11.05;;
49310;SDS011;35177;45.900;5.946;2024-01-30T03:20:51;16.67;;;11.20;;
49310;SDS011;35177;45.900;5.946;2024-01-30T03:23:16;18.30;;;10.50;;
49310;SDS011;35177;45.900;5.946;2024-01-30T03:25:41;16.95;;;10.35;;
49310;SDS011;35177;45.900;5.946;2024-01-30T03:28:07;17.90;;;9.00;;
49310;SDS011;35177;45.900;5.946;2024-01-30T03:30:32;17.48;;;10.50;;
49310;SDS011;35177;45.900;5.946;2024-01-30T03:32:57;18.50;;;10.57;;
49310;SDS011;35177;45.900;5.946;2024-01-30T03:35:22;19.52;;;11.15;;
49310;SDS011;35177;45.900;5.946;2024-01-30T03:37:48;17.52;;;10.40;;
49310;SDS011;35177;45.900;5.946;2024-01-30T03:40:13;19.30;;;11.10;;
49310;SDS011;35177;45.900;5.946;2024-01-30T03:42:38;19.30;;;10.75;;
49310;SDS011;35177;45.900;5.946;2024-01-30T03:45:04;17.45;;;9.80;;
49310;SDS011;35177;45.900;5.946;2024-01-30T03:47:29;15.60;;;10.25;;
49310;SDS011;35177;45.900;5.946;2024-01-30T03:49:54;18.40;;;10.82;;
49310;SDS011;35177;45.900;5.946;2024-01-30T03:52:20;16.50;;;11.00;;
49310;SDS011;35177;45.900;5.946;2024-01-30T03:54:45;18.02;;;10.27;;
49310;SDS011;35177;45.900;5.946;2024-01-30T03:57:10;17.23;;;11.35;;
49310;SDS011;35177;45.900;5.946;2024-01-30T03:59:36;20.13;;;12.00;;
49310;SDS011;35177;45.900;5.946;2024-01-30T04:02:01;23.35;;;12.38;;
49310;SDS011;35177;45.900;5.946;2024-01-30T04:04:26;20.85;;;12.40;;
49310;SDS011;35177;45.900;5.946;2024-01-30T04:06:52;21.35;;;12.02;;
49310;SDS011;35177;45.900;5.946;2024-01-30T04:09:17;18.92;;;11.05;;
49310;SDS011;35177;45.900;5.946;2024-01-30T04:11:42;17.48;;;10.90;;
49310;SDS011;35177;45.900;5.946;2024-01-30T04:14:08;19.00;;;11.18;;
49310;SDS011;35177;45.900;5.946;2024-01-30T04:16:33;17.17;;;10.13;;
49310;SDS011;35177;45.900;5.946;2024-01-30T04:18:58;16.67;;;10.10;;
49310;SDS011;35177;45.900;5.946;2024-01-30T04:21:24;15.32;;;9.45;;
49310;SDS011;35177;45.900;5.946;2024-01-30T04:23:50;17.02;;;10.50;;
49310;SDS011;35177;45.900;5.946;2024-01-30T04:26:16;22.10;;;11.25;;
49310;SDS011;35177;45.900;5.946;2024-01-30T04:28:41;20.92;;;11.57;;
49310;SDS011;35177;45.900;5.946;2024-01-30T04:31:06;19.48;;;11.13;;
49310;SDS011;35177;45.900;5.946;2024-01-30T04:33:32;25.33;;;12.82;;
49310;SDS011;35177;45.900;5.946;2024-01-30T04:35:58;19.38;;;11.60;;
49310;SDS011;35177;45.900;5.946;2024-01-30T04:38:23;21.20;;;11.38;;
49310;SDS011;35177;45.900;5.946;2024-01-30T04:40:49;21.48;;;11.93;;
49310;SDS011;35177;45.900;5.946;2024-01-30T04:43:14;23.05;;;11.32;;
49310;SDS011;35177;45.900;5.946;2024-01-30T04:45:40;18.30;;;11.40;;
49310;SDS011;35177;45.900;5.946;2024-01-30T04:48:06;16.48;;;9.80;;
49310;SDS011;35177;45.900;5.946;2024-01-30T04:50:31;18.48;;;10.73;;
49310;SDS011;35177;45.900;5.946;2024-01-30T04:52:56;23.33;;;12.98;;
49310;SDS011;35177;45.900;5.946;2024-01-30T04:55:22;23.52;;;12.27;;
49310;SDS011;35177;45.900;5.946;2024-01-30T04:57:47;21.70;;;11.02;;
49310;SDS011;35177;45.900;5.946;2024-01-30T05:00:12;21.65;;;11.45;;
49310;SDS011;35177;45.900;5.946;2024-01-30T05:02:37;18.33;;;10.68;;
49310;SDS011;35177;45.900;5.946;2024-01-30T05:05:03;16.65;;;10.30;;
49310;SDS011;35177;45.900;5.946;2024-01-30T05:07:29;21.08;;;10.60;;
49310;SDS011;35177;45.900;5.946;2024-01-30T05:09:54;21.17;;;11.07;;
49310;SDS011;35177;45.900;5.946;2024-01-30T05:12:19;17.23;;;10.30;;
49310;SDS011;35177;45.900;5.946;2024-01-30T05:14:45;20.30;;;10.82;;
49310;SDS011;35177;45.900;5.946;2024-01-30T05:17:10;18.35;;;11.20;;
49310;SDS011;35177;45.900;5.946;2024-01-30T05:19:37;22.77;;;12.05;;
49310;SDS011;35177;45.900;5.946;2024-01-30T05:22:03;16.58;;;10.80;;
49310;SDS011;35177;45.900;5.946;2024-01-30T05:24:28;14.98;;;9.65;;
49310;SDS011;35177;45.900;5.946;2024-01-30T05:26:53;18.65;;;10.80;;
49310;SDS011;35177;45.900;5.946;2024-01-30T05:29:18;18.15;;;10.55;;
49310;SDS011;35177;45.900;5.946;2024-01-30T05:31:44;18.80;;;11.88;;
49310;SDS011;35177;45.900;5.946;2024-01-30T05:34:09;22.13;;;12.38;;
49310;SDS011;35177;45.900;5.946;2024-01-30T05:36:34;19.63;;;11.15;;
49310;SDS011;35177;45.900;5.946;2024-01-30T05:39:00;22.42;;;13.70;;
49310;SDS011;35177;45.900;5.946;2024-01-30T05:41:25;21.00;;;12.70;;
49310;SDS011;35177;45.900;5.946;2024-01-30T05:43:54;33.13;;;15.13;;
49310;SDS011;35177;45.900;5.946;2024-01-30T05:46:19;24.30;;;14.55;;
49310;SDS011;35177;45.900;5.946;2024-01-30T05:48:44;27.48;;;14.00;;
49310;SDS011;35177;45.900;5.946;2024-01-30T05:51:09;23.92;;;13.43;;
49310;SDS011;35177;45.900;5.946;2024-01-30T05:53:35;20.48;;;11.93;;
49310;SDS011;35177;45.900;5.946;2024-01-30T05:56:03;24.98;;;13.55;;
49310;SDS011;35177;45.900;5.946;2024-01-30T05:58:28;19.00;;;12.60;;
49310;SDS011;35177;45.900;5.946;2024-01-30T06:00:53;17.25;;;11.52;;
49310;SDS011;35177;45.900;5.946;2024-01-30T06:03:19;21.90;;;13.40;;
49310;SDS011;35177;45.900;5.946;2024-01-30T06:05:44;20.77;;;12.90;;
49310;SDS011;35177;45.900;5.946;2024-01-30T06:08:09;21.88;;;12.57;;
49310;SDS011;35177;45.900;5.946;2024-01-30T06:10:34;19.42;;;12.32;;
49310;SDS011;35177;45.900;5.946;2024-01-30T06:13:00;22.38;;;13.10;;
49310;SDS011;35177;45.900;5.946;2024-01-30T06:15:25;22.33;;;14.27;;
49310;SDS011;35177;45.900;5.946;2024-01-30T06:17:51;22.13;;;14.13;;
49310;SDS011;35177;45.900;5.946;2024-01-30T06:20:16;23.77;;;13.00;;
49310;SDS011;35177;45.900;5.946;2024-01-30T06:22:41;18.48;;;11.73;;
49310;SDS011;35177;45.900;5.946;2024-01-30T06:25:07;21.30;;;12.23;;
49310;SDS011;35177;45.900;5.946;2024-01-30T06:27:32;20.60;;;12.80;;
49310;SDS011;35177;45.900;5.946;2024-01-30T06:29:58;17.80;;;11.40;;
49310;SDS011;35177;45.900;5.946;2024-01-30T06:32:23;22.73;;;12.65;;
49310;SDS011;35177;45.900;5.946;2024-01-30T06:34:48;21.10;;;12.65;;
49310;SDS011;35177;45.900;5.946;2024-01-30T06:37:13;21.70;;;12.68;;
49310;SDS011;35177;45.900;5.946;2024-01-30T06:39:39;21.17;;;12.40;;
49310;SDS011;35177;45.900;5.946;2024-01-30T06:42:04;17.42;;;11.75;;
49310;SDS011;35177;45.900;5.946;2024-01-30T06:44:30;21.02;;;12.45;;
49310;SDS011;35177;45.900;5.946;2024-01-30T06:46:55;22.70;;;12.80;;
49310;SDS011;35177;45.900;5.946;2024-01-30T06:49:20;25.35;;;14.27;;
49310;SDS011;35177;45.900;5.946;2024-01-30T06:51:47;19.60;;;12.00;;
49310;SDS011;35177;45.900;5.946;2024-01-30T06:54:12;17.67;;;11.65;;
49310;SDS011;35177;45.900;5.946;2024-01-30T06:56:38;18.58;;;11.73;;
49310;SDS011;35177;45.900;5.946;2024-01-30T06:59:03;19.70;;;12.05;;
49310;SDS011;35177;45.900;5.946;2024-01-30T07:01:29;16.27;;;10.93;;
49310;SDS011;35177;45.900;5.946;2024-01-30T07:03:54;17.65;;;10.73;;
49310;SDS011;35177;45.900;5.946;2024-01-30T07:06:20;22.85;;;11.80;;
49310;SDS011;35177;45.900;5.946;2024-01-30T07:08:45;15.68;;;10.93;;
49310;SDS011;35177;45.900;5.946;2024-01-30T07:11:10;16.95;;;10.93;;
49310;SDS011;35177;45.900;5.946;2024-01-30T07:13:37;16.95;;;11.00;;
49310;SDS011;35177;45.900;5.946;2024-01-30T07:16:02;30.58;;;13.07;;
49310;SDS011;35177;45.900;5.946;2024-01-30T07:18:28;23.40;;;13.52;;
49310;SDS011;35177;45.900;5.946;2024-01-30T07:20:53;22.50;;;12.63;;
49310;SDS011;35177;45.900;5.946;2024-01-30T07:23:18;18.55;;;12.13;;
49310;SDS011;35177;45.900;5.946;2024-01-30T07:25:44;20.58;;;12.85;;
49310;SDS011;35177;45.900;5.946;2024-01-30T07:28:10;18.35;;;11.77;;
49310;SDS011;35177;45.900;5.946;2024-01-30T07:30:36;26.75;;;16.77;;
49310;SDS011;35177;45.900;5.946;2024-01-30T07:33:01;30.98;;;18.33;;
49310;SDS011;35177;45.900;5.946;2024-01-30T07:35:26;53.85;;;25.25;;
49310;SDS011;35177;45.900;5.946;2024-01-30T07:37:52;121.50;;;48.00;;
49310;SDS011;35177;45.900;5.946;2024-01-30T07:40:17;69.75;;;37.17;;
49310;SDS011;35177;45.900;5.946;2024-01-30T07:42:42;60.83;;;32.92;;
49310;SDS011;35177;45.900;5.946;2024-01-30T07:45:08;66.85;;;34.22;;
49310;SDS011;35177;45.900;5.946;2024-01-30T07:47:33;52.28;;;29.05;;
49310;SDS011;35177;45.900;5.946;2024-01-30T07:49:58;53.85;;;23.75;;
49310;SDS011;35177;45.900;5.946;2024-01-30T07:52:24;50.45;;;25.88;;
49310;SDS011;35177;45.900;5.946;2024-01-30T07:58:00;41.47;;;22.10;;
49310;SDS011;35177;45.900;5.946;2024-01-30T08:00:26;40.10;;;22.80;;
49310;SDS011;35177;45.900;5.946;2024-01-30T08:02:51;36.35;;;19.95;;
49310;SDS011;35177;45.900;5.946;2024-01-30T08:05:19;32.90;;;20.65;;
49310;SDS011;35177;45.900;5.946;2024-01-30T08:07:44;34.38;;;19.60;;
49310;SDS011;35177;45.900;5.946;2024-01-30T08:10:11;35.45;;;20.83;;
49310;SDS011;35177;45.900;5.946;2024-01-30T08:12:36;37.15;;;20.60;;
49310;SDS011;35177;45.900;5.946;2024-01-30T08:15:02;35.53;;;20.33;;
49310;SDS011;35177;45.900;5.946;2024-01-30T08:17:28;31.45;;;18.00;;
49310;SDS011;35177;45.900;5.946;2024-01-30T08:19:53;31.90;;;18.50;;
49310;SDS011;35177;45.900;5.946;2024-01-30T08:22:18;32.28;;;18.08;;
49310;SDS011;35177;45.900;5.946;2024-01-30T08:24:44;26.67;;;17.23;;
49310;SDS011;35177;45.900;5.946;2024-01-30T08:27:09;19.95;;;13.52;;
49310;SDS011;35177;45.900;5.946;2024-01-30T08:29:35;20.73;;;12.70;;
49310;SDS011;35177;45.900;5.946;2024-01-30T08:32:00;20.17;;;11.13;;
49310;SDS011;35177;45.900;5.946;2024-01-30T08:34:25;18.35;;;11.68;;
49310;SDS011;35177;45.900;5.946;2024-01-30T08:36:51;16.05;;;11.02;;
49310;SDS011;35177;45.900;5.946;2024-01-30T08:39:16;19.80;;;13.00;;
49310;SDS011;35177;45.900;5.946;2024-01-30T08:41:41;23.90;;;11.93;;
49310;SDS011;35177;45.900;5.946;2024-01-30T08:44:07;21.42;;;13.57;;
49310;SDS011;35177;45.900;5.946;2024-01-30T08:46:32;17.00;;;11.82;;
49310;SDS011;35177;45.900;5.946;2024-01-30T08:48:58;18.90;;;11.82;;
49310;SDS011;35177;45.900;5.946;2024-01-30T08:51:24;18.83;;;12.98;;
49310;SDS011;35177;45.900;5.946;2024-01-30T08:53:49;19.77;;;13.25;;
49310;SDS011;35177;45.900;5.946;2024-01-30T08:56:19;18.83;;;13.02;;
49310;SDS011;35177;45.900;5.946;2024-01-30T08:58:44;21.90;;;13.13;;
49310;SDS011;35177;45.900;5.946;2024-01-30T09:01:11;19.08;;;12.50;;
49310;SDS011;35177;45.900;5.946;2024-01-30T09:03:37;18.25;;;11.90;;
49310;SDS011;35177;45.900;5.946;2024-01-30T09:06:08;18.80;;;12.20;;
49310;SDS011;35177;45.900;5.946;2024-01-30T09:08:33;19.48;;;13.02;;
49310;SDS011;35177;45.900;5.946;2024-01-30T09:10:58;18.25;;;12.13;;
49310;SDS011;35177;45.900;5.946;2024-01-30T09:13:24;19.95;;;12.82;;
49310;SDS011;35177;45.900;5.946;2024-01-30T09:15:49;21.05;;;13.40;;
49310;SDS011;35177;45.900;5.946;2024-01-30T09:18:14;20.40;;;13.10;;
49310;SDS011;35177;45.900;5.946;2024-01-30T09:20:39;21.88;;;14.35;;
49310;SDS011;35177;45.900;5.946;2024-01-30T09:23:05;19.20;;;13.55;;
49310;SDS011;35177;45.900;5.946;2024-01-30T09:25:30;23.75;;;15.23;;
49310;SDS011;35177;45.900;5.946;2024-01-30T09:27:55;23.08;;;15.70;;
49310;SDS011;35177;45.900;5.946;2024-01-30T09:30:20;22.77;;;16.23;;
49310;SDS011;35177;45.900;5.946;2024-01-30T09:32:46;30.33;;;17.27;;
49310;SDS011;35177;45.900;5.946;2024-01-30T09:35:11;27.15;;;16.10;;
49310;SDS011;35177;45.900;5.946;2024-01-30T09:37:36;26.17;;;15.43;;
49310;SDS011;35177;45.900;5.946;2024-01-30T09:40:02;24.30;;;15.70;;
49310;SDS011;35177;45.900;5.946;2024-01-30T09:42:34;27.63;;;15.68;;
49310;SDS011;35177;45.900;5.946;2024-01-30T09:45:03;25.95;;;15.38;;
49310;SDS011;35177;45.900;5.946;2024-01-30T09:47:32;21.13;;;15.15;;
49310;SDS011;35177;45.900;5.946;2024-01-30T09:49:57;18.98;;;14.20;;
49310;SDS011;35177;45.900;5.946;2024-01-30T09:52:23;22.27;;;13.80;;
49310;SDS011;35177;45.900;5.946;2024-01-30T09:54:49;22.70;;;14.60;;
49310;SDS011;35177;45.900;5.946;2024-01-30T09:57:16;25.38;;;15.43;;
49310;SDS011;35177;45.900;5.946;2024-01-30T09:59:41;18.45;;;12.95;;
49310;SDS011;35177;45.900;5.946;2024-01-30T10:02:07;20.17;;;12.68;;
49310;SDS011;35177;45.900;5.946;2024-01-30T10:04:32;20.35;;;13.18;;
49310;SDS011;35177;45.900;5.946;2024-01-30T10:06:59;20.27;;;12.90;;
49310;SDS011;35177;45.900;5.946;2024-01-30T10:09:25;20.45;;;12.57;;
49310;SDS011;35177;45.900;5.946;2024-01-30T10:11:50;21.40;;;12.23;;
49310;SDS011;35177;45.900;5.946;2024-01-30T10:14:16;21.02;;;12.23;;
49310;SDS011;35177;45.900;5.946;2024-01-30T10:16:41;17.63;;;11.63;;
49310;SDS011;35177;45.900;5.946;2024-01-30T10:19:07;16.17;;;11.27;;
49310;SDS011;35177;45.900;5.946;2024-01-30T10:21:32;16.10;;;11.15;;
49310;SDS011;35177;45.900;5.946;2024-01-30T10:23:57;15.60;;;11.15;;
49310;SDS011;35177;45.900;5.946;2024-01-30T10:26:22;18.67;;;10.70;;
49310;SDS011;35177;45.900;5.946;2024-01-30T10:28:48;16.75;;;11.70;;
49310;SDS011;35177;45.900;5.946;2024-01-30T10:31:17;18.75;;;11.35;;
49310;SDS011;35177;45.900;5.946;2024-01-30T10:33:44;15.40;;;10.20;;
49310;SDS011;35177;45.900;5.946;2024-01-30T10:36:09;15.50;;;10.10;;
49310;SDS011;35177;45.900;5.946;2024-01-30T10:38:36;16.52;;;10.77;;
49310;SDS011;35177;45.900;5.946;2024-01-30T10:41:03;21.08;;;11.88;;
49310;SDS011;35177;45.900;5.946;2024-01-30T10:43:32;17.92;;;11.05;;
49310;SDS011;35177;45.900;5.946;2024-01-30T10:46:03;16.30;;;11.07;;
49310;SDS011;35177;45.900;5.946;2024-01-30T10:48:30;16.08;;;10.98;;
49310;SDS011;35177;45.900;5.946;2024-01-30T10:50:57;17.67;;;11.48;;
49310;SDS011;35177;45.900;5.946;2024-01-30T10:53:24;21.05;;;10.88;;
49310;SDS011;35177;45.900;5.946;2024-01-30T10:55:51;17.15;;;11.10;;
49310;SDS011;35177;45.900;5.946;2024-01-30T10:58:16;19.10;;;11.23;;
49310;SDS011;35177;45.900;5.946;2024-01-30T11:00:42;16.33;;;11.27;;
49310;SDS011;35177;45.900;5.946;2024-01-30T11:03:07;16.20;;;10.85;;
49310;SDS011;35177;45.900;5.946;2024-01-30T11:05:33;14.48;;;10.63;;
49310;SDS011;35177;45.900;5.946;2024-01-30T11:07:58;18.02;;;11.13;;
49310;SDS011;35177;45.900;5.946;2024-01-30T11:10:24;14.82;;;9.93;;
49310;SDS011;35177;45.900;5.946;2024-01-30T11:12:49;14.38;;;9.90;;
49310;SDS011;35177;45.900;5.946;2024-01-30T11:15:16;24.77;;;10.98;;
49310;SDS011;35177;45.900;5.946;2024-01-30T11:20:10;17.63;;;11.15;;
49310;SDS011;35177;45.900;5.946;2024-01-30T11:22:36;16.95;;;10.65;;
49310;SDS011;35177;45.900;5.946;2024-01-30T11:25:02;16.60;;;11.13;;
49310;SDS011;35177;45.900;5.946;2024-01-30T11:27:28;18.63;;;11.35;;
49310;SDS011;35177;45.900;5.946;2024-01-30T11:29:54;17.17;;;11.13;;
49310;SDS011;35177;45.900;5.946;2024-01-30T11:32:25;16.70;;;11.23;;
49310;SDS011;35177;45.900;5.946;2024-01-30T11:34:51;19.02;;;11.88;;
49310;SDS011;35177;45.900;5.946;2024-01-30T11:37:16;17.80;;;11.77;;
49310;SDS011;35177;45.900;5.946;2024-01-30T11:39:45;18.52;;;11.65;;
49310;SDS011;35177;45.900;5.946;2024-01-30T11:42:11;19.35;;;11.05;;
49310;SDS011;35177;45.900;5.946;2024-01-30T11:44:36;18.50;;;12.65;;
49310;SDS011;35177;45.900;5.946;2024-01-30T11:47:01;17.98;;;11.32;;
49310;SDS011;35177;45.900;5.946;2024-01-30T11:49:28;16.92;;;11.35;;
49310;SDS011;35177;45.900;5.946;2024-01-30T11:51:53;19.38;;;12.23;;
49310;SDS011;35177;45.900;5.946;2024-01-30T11:54:19;17.92;;;11.10;;
49310;SDS011;35177;45.900;5.946;2024-01-30T11:56:44;19.13;;;12.70;;
49310;SDS011;35177;45.900;5.946;2024-01-30T11:59:10;18.48;;;12.27;;
49310;SDS011;35177;45.900;5.946;2024-01-30T12:01:35;17.27;;;11.93;;
49310;SDS011;35177;45.900;5.946;2024-01-30T12:04:01;20.25;;;12.50;;
49310;SDS011;35177;45.900;5.946;2024-01-30T12:06:26;22.48;;;13.18;;
49310;SDS011;35177;45.900;5.946;2024-01-30T12:09:02;18.85;;;12.25;;
49310;SDS011;35177;45.900;5.946;2024-01-30T12:11:33;22.20;;;11.50;;
49310;SDS011;35177;45.900;5.946;2024-01-30T12:13:58;18.25;;;12.45;;
49310;SDS011;35177;45.900;5.946;2024-01-30T12:16:23;16.63;;;10.65;;
49310;SDS011;35177;45.900;5.946;2024-01-30T12:18:49;16.50;;;11.13;;
49310;SDS011;35177;45.900;5.946;2024-01-30T12:21:17;17.67;;;11.43;;
49310;SDS011;35177;45.900;5.946;2024-01-30T12:23:43;21.10;;;12.57;;
49310;SDS011;35177;45.900;5.946;2024-01-30T12:26:08;15.40;;;11.25;;
49310;SDS011;35177;45.900;5.946;2024-01-30T12:28:33;17.73;;;12.13;;
49310;SDS011;35177;45.900;5.946;2024-01-30T12:31:02;19.63;;;11.60;;
49310;SDS011;35177;45.900;5.946;2024-01-30T12:33:28;19.10;;;12.15;;
49310;SDS011;35177;45.900;5.946;2024-01-30T12:35:53;15.80;;;11.10;;
49310;SDS011;35177;45.900;5.946;2024-01-30T12:38:19;23.02;;;12.18;;
49310;SDS011;35177;45.900;5.946;2024-01-30T12:40:44;18.30;;;11.82;;
49310;SDS011;35177;45.900;5.946;2024-01-30T12:43:10;30.85;;;11.63;;
49310;SDS011;35177;45.900;5.946;2024-01-30T12:45:35;16.80;;;11.75;;
49310;SDS011;35177;45.900;5.946;2024-01-30T12:48:01;18.30;;;12.15;;
49310;SDS011;35177;45.900;5.946;2024-01-30T12:50:26;19.95;;;11.23;;
49310;SDS011;35177;45.900;5.946;2024-01-30T12:52:51;19.27;;;11.68;;
49310;SDS011;35177;45.900;5.946;2024-01-30T12:55:17;18.38;;;12.45;;
49310;SDS011;35177;45.900;5.946;2024-01-30T12:57:42;17.63;;;12.18;;
49310;SDS011;35177;45.900;5.946;2024-01-30T13:00:08;17.90;;;11.95;;
49310;SDS011;35177;45.900;5.946;2024-01-30T13:02:33;19.70;;;11.93;;
49310;SDS011;35177;45.900;5.946;2024-01-30T13:05:02;19.23;;;11.98;;
49310;SDS011;35177;45.900;5.946;2024-01-30T13:07:27;15.98;;;10.95;;
49310;SDS011;35177;45.900;5.946;2024-01-30T13:09:52;16.27;;;11.85;;
49310;SDS011;35177;45.900;5.946;2024-01-30T13:12:18;16.23;;;10.70;;
49310;SDS011;35177;45.900;5.946;2024-01-30T13:14:43;21.15;;;11.48;;
49310;SDS011;35177;45.900;5.946;2024-01-30T13:17:08;15.95;;;11.07;;
49310;SDS011;35177;45.900;5.946;2024-01-30T13:19:33;19.17;;;11.73;;
49310;SDS011;35177;45.900;5.946;2024-01-30T13:21:59;17.33;;;11.23;;
49310;SDS011;35177;45.900;5.946;2024-01-30T13:24:24;18.42;;;11.82;;
49310;SDS011;35177;45.900;5.946;2024-01-30T13:26:49;21.00;;;11.20;;
49310;SDS011;35177;45.900;5.946;2024-01-30T13:29:15;14.55;;;10.10;;
49310;SDS011;35177;45.900;5.946;2024-01-30T13:31:40;18.45;;;10.80;;
49310;SDS011;35177;45.900;5.946;2024-01-30T13:34:06;15.63;;;10.23;;
49310;SDS011;35177;45.900;5.946;2024-01-30T13:36:32;16.13;;;10.95;;
49310;SDS011;35177;45.900;5.946;2024-01-30T13:38:57;17.83;;;11.07;;
49310;SDS011;35177;45.900;5.946;2024-01-30T13:41:23;17.40;;;10.43;;
49310;SDS011;35177;45.900;5.946;2024-01-30T13:43:48;14.52;;;10.35;;
49310;SDS011;35177;45.900;5.946;2024-01-30T13:46:14;15.88;;;10.38;;
49310;SDS011;35177;45.900;5.946;2024-01-30T13:48:39;16.38;;;11.77;;
49310;SDS011;35177;45.900;5.946;2024-01-30T13:51:05;18.60;;;12.90;;
49310;SDS011;35177;45.900;5.946;2024-01-30T13:53:30;23.67;;;12.52;;
49310;SDS011;35177;45.900;5.946;2024-01-30T13:55:55;19.55;;;12.48;;
49310;SDS011;35177;45.900;5.946;2024-01-30T13:58:21;22.05;;;11.95;;
49310;SDS011;35177;45.900;5.946;2024-01-30T14:00:46;19.88;;;11.40;;
49310;SDS011;35177;45.900;5.946;2024-01-30T14:03:11;15.93;;;10.80;;
49310;SDS011;35177;45.900;5.946;2024-01-30T14:05:37;16.13;;;11.23;;
49310;SDS011;35177;45.900;5.946;2024-01-30T14:08:02;21.15;;;11.48;;
49310;SDS011;35177;45.900;5.946;2024-01-30T14:10:27;16.45;;;11.32;;
49310;SDS011;35177;45.900;5.946;2024-01-30T14:12:53;16.70;;;11.05;;
49310;SDS011;35177;45.900;5.946;2024-01-30T14:15:18;16.85;;;10.50;;
49310;SDS011;35177;45.900;5.946;2024-01-30T14:17:44;15.75;;;9.65;;